Date,TemperatureHighF,TemperatureAvgF,TemperatureLowF,DewpointHighF,DewpointAvgF,DewpointLowF,HumidityHigh,HumidityAvg,HumidityLow,PressureMaxIn,PressureMinIn,WindSpeedMaxMPH,WindSpeedAvgMPH,GustSpeedMaxMPH,PrecipitationSumIn
2013-1-1,47,39,34,30,20,16,71,48,37,30.39,30.24,24,7,24,0.00
2013-1-2,49,40,34,24,17,13,42,40,37,30.27,30.12,25,10,25,0.00
2013-1-3,51,42,35,49,26,13,98,56,37,30.30,30.06,24,7,24,0.00
2013-1-4,58,47,42,50,41,31,98,83,38,30.33,30.15,9,1,9,0.00
2013-1-5,49,45,43,43,36,28,98,71,48,30.21,30.12,10,2,10,0.00
2013-1-6,53,46,42,48,37,27,98,72,38,30.24,30.15,10,1,10,0.00
2013-1-7,52,50,46,52,48,42,98,96,87,30.27,30.12,20,4,20,0.00
2013-1-8,52,51,49,51,45,35,98,81,54,30.27,30.00,22,5,22,0.00
2013-1-9,51,45,38,45,31,18,84,60,37,30.03,29.83,22,4,22,0.00
2013-1-10,47,40,36,35,29,19,87,69,38,30.18,30.03,26,3,26,0.00
2013-1-11,50,39,32,34,26,17,86,62,37,30.33,30.18,16,3,16,0.00
2013-1-12,43,34,30,24,18,15,79,51,39,30.39,30.30,13,4,13,0.00
2013-1-13,38,32,29,22,15,12,72,49,40,30.48,30.39,15,6,15,0.00
2013-1-14,47,35,28,23,17,12,61,48,37,30.56,30.47,14,5,14,0.00
2013-1-15,49,37,32,30,23,18,86,58,37,30.65,30.56,15,5,15,0.00
2013-1-16,51,40,35,26,21,16,62,46,37,30.59,30.42,17,8,17,0.00
2013-1-17,54,43,36,28,20,16,46,40,36,30.42,30.24,22,8,22,0.00
2013-1-18,59,44,36,32,22,16,70,42,35,30.27,30.21,17,5,17,0.00
2013-1-19,52,41,34,37,26,20,89,58,37,30.30,30.21,9,2,9,0.00
2013-1-20,59,41,31,32,23,15,91,51,35,30.30,30.18,13,4,13,0.00
2013-1-21,60,42,34,32,21,14,62,44,35,30.21,30.09,14,6,14,0.00
2013-1-22,58,44,35,30,21,16,58,41,35,30.09,29.91,15,6,15,0.00
2013-1-23,45,42,38,39,29,19,98,64,39,30.21,29.88,10,2,10,0.00
2013-1-24,54,44,36,42,36,28,98,77,37,30.21,30.12,15,4,15,0.00
2013-1-25,51,48,43,50,45,40,98,92,82,30.18,30.03,17,3,17,0.00
2013-1-26,51,44,40,42,34,24,87,69,37,30.15,30.00,15,2,15,0.00
2013-1-27,45,42,37,43,37,32,98,84,61,30.21,30.12,17,2,17,0.00
2013-1-28,48,44,43,42,32,27,86,63,47,30.33,30.15,17,3,17,0.00
2013-1-29,52,46,43,46,37,26,96,72,39,30.56,30.33,15,4,15,0.00
2013-1-30,50,46,44,46,41,37,91,85,78,30.56,30.47,9,1,9,0.00
2013-1-31,60,46,42,49,42,25,98,88,35,30.48,30.36,9,1,9,0.00